createdAt,value
2022-08-19T00:02:10.127Z,22.26
2022-08-19T00:04:37.715Z,22.27
2022-08-19T00:07:07.945Z,22.42
2022-08-19T00:09:35.759Z,22.20
2022-08-19T00:12:03.622Z,22.22
2022-08-19T00:14:33.542Z,21.94
2022-08-19T00:17:01.379Z,21.90
2022-08-19T00:19:28.792Z,22.14
2022-08-19T00:21:57.268Z,22.16
2022-08-19T00:24:24.734Z,22.08
2022-08-19T00:26:53.576Z,22.21
2022-08-19T00:29:23.573Z,22.12
2022-08-19T00:31:54.500Z,21.80
2022-08-19T00:34:23.249Z,22.02
2022-08-19T00:36:50.952Z,21.95
2022-08-19T00:39:18.743Z,21.89
2022-08-19T00:41:49.856Z,21.87
2022-08-19T00:44:26.798Z,21.95
2022-08-19T00:46:58.121Z,22.02
2022-08-19T00:49:46.926Z,21.99
2022-08-19T00:52:20.307Z,22.02
2022-08-19T00:54:52.400Z,21.85
2022-08-19T00:57:24.995Z,21.97
2022-08-19T01:00:02.185Z,21.90
2022-08-19T01:02:31.954Z,21.83
2022-08-19T01:05:04.628Z,21.73
2022-08-19T01:10:08.637Z,21.69
2022-08-19T01:12:37.249Z,21.75
2022-08-19T01:15:09.139Z,21.78
2022-08-19T01:17:40.492Z,21.51
2022-08-19T01:20:11.505Z,21.68
2022-08-19T01:22:46.729Z,21.66
2022-08-19T01:25:16.900Z,21.66
2022-08-19T01:27:50.135Z,21.52
2022-08-19T01:30:32.428Z,21.57
2022-08-19T01:33:01.506Z,21.45
2022-08-19T01:35:31.447Z,21.30
2022-08-19T01:38:02.416Z,21.57
2022-08-19T01:40:34.190Z,21.56
2022-08-19T01:43:03.929Z,21.65
2022-08-19T01:45:34.931Z,21.56
2022-08-19T01:48:02.900Z,21.69
2022-08-19T01:50:32.089Z,21.70
2022-08-19T01:53:05.921Z,21.64
2022-08-19T01:55:40.992Z,21.60
2022-08-19T01:58:12.943Z,21.60
2022-08-19T02:00:40.591Z,21.61
2022-08-19T02:03:10.348Z,21.65
2022-08-19T02:05:38.541Z,21.66
2022-08-19T02:08:06.666Z,21.68
2022-08-19T02:13:01.502Z,21.58
2022-08-19T02:15:28.955Z,21.52
2022-08-19T02:17:56.369Z,21.54
2022-08-19T02:20:23.795Z,21.56
2022-08-19T02:22:51.382Z,21.54
2022-08-19T02:25:18.679Z,21.32
2022-08-19T02:27:45.717Z,21.60
2022-08-19T02:30:17.652Z,21.40
2022-08-19T02:32:45.274Z,21.31
2022-08-19T02:35:16.280Z,21.55
2022-08-19T02:38:03.086Z,21.51
2022-08-19T02:40:35.247Z,21.50
2022-08-19T02:43:07.628Z,21.54
2022-08-19T02:45:42.809Z,21.53
2022-08-19T02:48:21.435Z,21.54
2022-08-19T02:50:54.699Z,21.53
2022-08-19T02:53:24.930Z,21.57
2022-08-19T02:55:52.968Z,21.59
2022-08-19T02:58:22.567Z,21.62
2022-08-19T03:00:54.638Z,21.62
2022-08-19T03:03:22.624Z,21.58
2022-08-19T03:05:56.558Z,21.60
2022-08-19T03:08:26.545Z,21.43
2022-08-19T03:10:54.255Z,21.54
2022-08-19T03:13:21.791Z,21.48
2022-08-19T03:15:49.612Z,21.51
2022-08-19T03:18:18.070Z,21.27
2022-08-19T03:20:55.403Z,21.55
2022-08-19T03:23:24.695Z,21.50
2022-08-19T03:26:03.005Z,21.45
2022-08-19T03:28:43.166Z,21.44
2022-08-19T03:31:42.099Z,21.47
2022-08-19T03:34:18.803Z,21.47
2022-08-19T03:36:47.394Z,21.52
2022-08-19T03:39:15.399Z,21.49
2022-08-19T03:41:46.526Z,21.39
2022-08-19T03:44:24.130Z,21.29
2022-08-19T03:46:56.291Z,21.41
2022-08-19T03:49:28.428Z,21.42
2022-08-19T03:51:58.889Z,21.37
2022-08-19T03:54:27.013Z,21.45
2022-08-19T03:56:57.469Z,21.48
2022-08-19T03:59:36.277Z,21.46
2022-08-19T04:02:12.502Z,21.41
2022-08-19T04:04:42.003Z,21.34
2022-08-19T04:07:11.052Z,21.30
2022-08-19T04:09:38.580Z,21.43
2022-08-19T04:12:06.876Z,21.44
2022-08-19T04:14:35.538Z,21.25
2022-08-19T04:17:05.878Z,21.49
2022-08-19T04:19:35.789Z,21.29
2022-08-19T04:22:03.561Z,21.52
2022-08-19T04:24:30.986Z,21.50
2022-08-19T04:27:01.314Z,21.39
2022-08-19T04:29:28.864Z,21.22
2022-08-19T04:31:57.945Z,21.14
2022-08-19T04:34:30.619Z,21.23
2022-08-19T04:36:59.758Z,21.41
2022-08-19T04:39:50.939Z,21.09
2022-08-19T04:42:37.993Z,21.43
2022-08-19T04:45:13.910Z,21.33
2022-08-19T04:47:47.725Z,20.94
2022-08-19T04:50:30.489Z,21.04
2022-08-19T04:52:57.739Z,21.14
2022-08-19T04:55:26.752Z,21.41
2022-08-19T04:57:57.152Z,21.37
2022-08-19T05:00:24.715Z,21.46
2022-08-19T05:02:51.807Z,21.34
2022-08-19T05:05:19.533Z,21.05
2022-08-19T05:07:47.138Z,21.41
2022-08-19T05:10:14.872Z,21.44
2022-08-19T05:12:42.348Z,21.43
2022-08-19T05:15:10.466Z,21.43
2022-08-19T05:17:39.137Z,21.47
2022-08-19T05:20:27.734Z,21.42
2022-08-19T05:22:55.627Z,21.42
2022-08-19T05:25:23.580Z,21.43
2022-08-19T05:27:51.363Z,21.48
2022-08-19T05:30:33.624Z,21.45
2022-08-19T05:33:07.362Z,21.46
2022-08-19T05:35:34.984Z,21.48
2022-08-19T05:38:02.448Z,21.37
2022-08-19T05:40:29.978Z,21.30
2022-08-19T05:42:57.476Z,21.35
2022-08-19T05:45:25.615Z,21.36
2022-08-19T05:47:53.059Z,21.36
2022-08-19T05:50:20.719Z,21.31
2022-08-19T05:52:50.206Z,21.30
2022-08-19T05:55:21.023Z,21.18
2022-08-19T05:57:48.876Z,21.17
2022-08-19T06:00:17.369Z,21.19
2022-08-19T06:02:47.127Z,21.17
2022-08-19T06:05:14.711Z,21.15
2022-08-19T06:07:42.580Z,21.12
2022-08-19T06:10:12.822Z,21.09
2022-08-19T06:12:40.567Z,21.12
2022-08-19T06:15:14.429Z,21.08
2022-08-19T06:17:45.250Z,21.04
2022-08-19T06:20:15.830Z,21.05
2022-08-19T06:22:46.475Z,20.99
2022-08-19T06:25:16.111Z,21.03
2022-08-19T06:28:14.629Z,21.09
2022-08-19T06:30:31.263Z,21.18
2022-08-19T06:32:58.670Z,21.17
2022-08-19T06:35:26.408Z,21.19
2022-08-19T06:37:54.701Z,21.21
2022-08-19T06:40:22.709Z,21.23
2022-08-19T06:42:54.432Z,21.26
2022-08-19T06:45:24.570Z,21.25
2022-08-19T06:47:56.794Z,21.26
2022-08-19T06:50:25.229Z,21.24
2022-08-19T06:52:53.371Z,21.19
2022-08-19T06:55:21.293Z,21.22
2022-08-19T06:57:49.267Z,21.26
2022-08-19T07:00:16.984Z,21.20
2022-08-19T07:02:49.616Z,21.25
2022-08-19T07:05:23.636Z,21.19
2022-08-19T07:07:51.171Z,20.87
2022-08-19T07:10:19.355Z,20.86
2022-08-19T07:12:47.505Z,21.26
2022-08-19T07:15:14.654Z,21.08
2022-08-19T07:17:42.208Z,21.33
2022-08-19T07:20:11.095Z,21.35
2022-08-19T07:22:39.553Z,21.40
2022-08-19T07:25:08.923Z,21.37
2022-08-19T07:27:38.043Z,21.28
2022-08-19T07:30:11.712Z,21.13
2022-08-19T07:32:40.899Z,21.10
2022-08-19T07:35:10.547Z,20.89
2022-08-19T07:37:39.220Z,20.90
2022-08-19T07:40:10.008Z,20.93
2022-08-19T07:42:37.346Z,20.93
2022-08-19T07:45:08.330Z,20.75
2022-08-19T07:47:50.348Z,20.85
2022-08-19T07:50:20.912Z,20.64
2022-08-19T07:52:50.758Z,20.56
2022-08-19T07:55:42.110Z,20.57
2022-08-19T07:58:09.474Z,20.51
2022-08-19T08:00:36.989Z,20.54
2022-08-19T08:03:04.672Z,20.60
2022-08-19T08:05:50.668Z,20.52
2022-08-19T08:08:36.725Z,20.59
2022-08-19T08:11:07.709Z,20.54
2022-08-19T08:13:39.179Z,20.53
2022-08-19T08:16:07.557Z,20.64
2022-08-19T08:18:42.457Z,20.68
2022-08-19T08:21:09.989Z,20.68
2022-08-19T08:23:39.734Z,20.57
2022-08-19T08:26:07.279Z,20.61
2022-08-19T08:28:34.759Z,20.68
2022-08-19T08:31:02.373Z,20.60
2022-08-19T08:33:36.974Z,20.65
2022-08-19T08:36:08.669Z,20.52
2022-08-19T08:38:41.312Z,20.54
2022-08-19T08:41:37.745Z,20.52
2022-08-19T08:44:05.795Z,20.58
2022-08-19T08:46:58.232Z,20.55
2022-08-19T08:49:43.893Z,20.65
2022-08-19T08:52:25.655Z,20.80
2022-08-19T08:55:10.326Z,20.93
2022-08-19T08:57:42.445Z,21.02
2022-08-19T09:00:23.524Z,21.07
2022-08-19T09:02:51.704Z,21.20
2022-08-19T09:05:25.999Z,21.20
2022-08-19T09:08:16.413Z,21.30
2022-08-19T09:10:54.971Z,21.43
2022-08-19T09:14:05.967Z,21.48
2022-08-19T09:16:33.048Z,21.21
2022-08-19T09:19:06.555Z,21.65
2022-08-19T09:21:35.530Z,21.82
2022-08-19T09:24:04.596Z,21.92
2022-08-19T09:26:47.545Z,21.90
2022-08-19T09:29:22.499Z,21.99
2022-08-19T09:31:51.007Z,22.15
2022-08-19T09:34:22.094Z,22.25
2022-08-19T09:36:56.103Z,22.24
2022-08-19T09:39:23.858Z,22.17
2022-08-19T09:41:51.356Z,22.32
2022-08-19T09:44:21.227Z,22.40
2022-08-19T09:46:49.815Z,22.38
2022-08-19T09:49:19.735Z,22.48
2022-08-19T09:51:52.589Z,22.54
2022-08-19T09:54:24.672Z,22.68
2022-08-19T09:56:58.493Z,22.82
2022-08-19T09:59:25.951Z,22.90
2022-08-19T10:01:53.924Z,22.95
2022-08-19T10:04:44.894Z,22.91
2022-08-19T10:07:13.004Z,22.88
2022-08-19T10:09:41.965Z,22.95
2022-08-19T10:12:11.305Z,22.99
2022-08-19T10:14:39.347Z,23.01
2022-08-19T10:17:20.025Z,22.96
2022-08-19T10:19:54.996Z,23.26
2022-08-19T10:22:23.854Z,23.53
2022-08-19T10:24:54.034Z,23.58
2022-08-19T10:27:21.998Z,23.52
2022-08-19T10:29:49.374Z,23.42
2022-08-19T10:32:17.050Z,23.56
2022-08-19T10:34:48.111Z,23.92
2022-08-19T10:37:28.930Z,24.60
2022-08-19T10:39:58.698Z,25.05
2022-08-19T10:42:25.915Z,25.18
2022-08-19T10:44:52.908Z,25.00
2022-08-19T10:47:25.791Z,24.76
2022-08-19T10:50:14.049Z,24.76
2022-08-19T10:52:49.522Z,24.48
2022-08-19T10:55:43.709Z,24.25
2022-08-19T10:58:23.486Z,23.84
2022-08-19T11:00:59.413Z,23.51
2022-08-19T11:03:30.457Z,23.53
2022-08-19T11:06:09.217Z,23.61
2022-08-19T11:08:38.678Z,23.78
2022-08-19T11:11:08.074Z,23.93
2022-08-19T11:13:39.729Z,23.90
2022-08-19T11:16:14.810Z,23.89
2022-08-19T11:18:50.795Z,24.01
2022-08-19T11:21:34.061Z,24.07
2022-08-19T11:24:06.856Z,23.97
2022-08-19T11:26:35.340Z,23.79
2022-08-19T11:29:04.086Z,24.19
2022-08-19T11:31:34.722Z,24.32
2022-08-19T11:34:04.644Z,24.33
2022-08-19T11:36:35.740Z,24.30
2022-08-19T11:39:05.556Z,24.21
2022-08-19T11:41:33.100Z,23.48
2022-08-19T11:44:00.729Z,24.08
2022-08-19T11:46:30.349Z,24.24
2022-08-19T11:49:01.722Z,24.38
2022-08-19T11:51:30.480Z,24.08
2022-08-19T11:53:59.868Z,23.99
2022-08-19T11:56:28.881Z,23.73
2022-08-19T11:58:57.886Z,23.65
2022-08-19T12:01:27.038Z,23.58
2022-08-19T12:03:56.218Z,23.43
2022-08-19T12:06:30.140Z,23.44
2022-08-19T12:09:01.180Z,23.44
2022-08-19T12:11:29.117Z,23.58
2022-08-19T12:14:02.283Z,23.52
2022-08-19T12:16:32.862Z,23.45
2022-08-19T12:19:04.647Z,23.02
2022-08-19T12:21:34.927Z,23.12
2022-08-19T12:24:04.863Z,23.01
2022-08-19T12:26:32.451Z,22.76
2022-08-19T12:29:00.689Z,22.86
2022-08-19T12:31:30.242Z,22.73
2022-08-19T12:33:57.693Z,22.50
2022-08-19T12:36:25.899Z,22.78
2022-08-19T12:38:53.463Z,22.58
2022-08-19T12:41:23.197Z,23.00
2022-08-19T12:43:51.067Z,23.08
2022-08-19T12:46:22.266Z,23.16
2022-08-19T12:48:55.328Z,23.11
2022-08-19T12:51:22.589Z,22.97
2022-08-19T12:53:50.813Z,23.08
2022-08-19T12:56:22.980Z,23.13
2022-08-19T12:58:52.985Z,23.31
2022-08-19T13:01:22.066Z,23.37
2022-08-19T13:03:53.390Z,23.44
2022-08-19T13:06:20.900Z,23.35
2022-08-19T13:08:48.479Z,23.19
2022-08-19T13:11:20.337Z,23.26
2022-08-19T13:13:51.868Z,23.39
2022-08-19T13:16:21.280Z,23.44
2022-08-19T13:18:50.227Z,23.41
2022-08-19T13:21:17.930Z,23.42
2022-08-19T13:23:49.520Z,23.39
2022-08-19T13:26:17.743Z,23.36
2022-08-19T13:29:04.101Z,23.37
2022-08-19T13:31:53.005Z,23.37
2022-08-19T13:34:27.744Z,23.31
2022-08-19T13:36:59.391Z,23.24
2022-08-19T13:39:26.858Z,22.86
2022-08-19T13:41:54.368Z,22.64
2022-08-19T13:44:22.638Z,22.73
2022-08-19T13:46:53.953Z,22.78
2022-08-19T13:49:22.426Z,22.82
2022-08-19T13:51:49.914Z,22.94
2022-08-19T13:54:17.312Z,22.93
2022-08-19T13:56:46.764Z,22.81
2022-08-19T13:59:14.381Z,22.82
2022-08-19T14:01:42.365Z,22.77
2022-08-19T14:04:10.173Z,22.78
2022-08-19T14:06:37.994Z,22.71
2022-08-19T14:09:06.622Z,22.60
2022-08-19T14:11:34.040Z,22.52
2022-08-19T14:14:01.595Z,22.54
2022-08-19T14:16:30.433Z,22.56
2022-08-19T14:18:58.135Z,22.58
2022-08-19T14:21:26.580Z,22.65
2022-08-19T14:23:55.029Z,22.67
2022-08-19T14:26:23.704Z,22.57
2022-08-19T14:28:53.701Z,22.59
2022-08-19T14:31:26.794Z,22.53
2022-08-19T14:33:57.869Z,22.55
2022-08-19T14:36:25.412Z,22.54
2022-08-19T14:38:53.120Z,22.44
2022-08-19T14:41:24.115Z,22.40
2022-08-19T14:43:53.850Z,22.45
2022-08-19T14:46:24.330Z,22.38
2022-08-19T14:48:53.277Z,22.42
2022-08-19T14:51:22.202Z,22.47
2022-08-19T14:53:50.045Z,22.39
2022-08-19T14:56:21.198Z,22.18
2022-08-19T14:58:52.379Z,22.20
2022-08-19T15:01:22.120Z,22.30
2022-08-19T15:03:53.906Z,22.27
2022-08-19T15:06:23.195Z,22.37
2022-08-19T15:08:52.792Z,22.32
2022-08-19T15:11:23.278Z,22.22
2022-08-19T15:13:51.803Z,22.17
2022-08-19T15:16:19.914Z,22.11
2022-08-19T15:18:50.693Z,22.15
2022-08-19T15:21:26.519Z,22.17
2022-08-19T15:23:56.847Z,22.04
2022-08-19T15:26:28.520Z,21.98
2022-08-19T15:28:56.996Z,21.94
2022-08-19T15:31:28.217Z,22.03
2022-08-19T15:33:59.129Z,22.12
2022-08-19T15:36:27.699Z,22.03
2022-08-19T15:38:58.941Z,22.05
2022-08-19T15:41:30.935Z,21.92
2022-08-19T15:44:14.550Z,22.18
2022-08-19T15:46:44.306Z,22.19
2022-08-19T15:49:18.198Z,22.12
2022-08-19T15:51:49.342Z,21.93
2022-08-19T15:54:21.631Z,22.20
2022-08-19T15:57:09.531Z,22.21
2022-08-19T16:00:00.074Z,22.32
2022-08-19T16:02:53.497Z,22.25
2022-08-19T16:05:44.409Z,22.38
2022-08-19T16:08:12.189Z,22.37
2022-08-19T16:10:39.964Z,22.27
2022-08-19T16:13:07.075Z,22.39
2022-08-19T16:15:34.264Z,22.22
2022-08-19T16:18:04.821Z,22.27
2022-08-19T16:20:33.185Z,22.27
2022-08-19T16:23:04.829Z,22.40
2022-08-19T16:25:32.099Z,22.25
2022-08-19T16:28:06.997Z,22.29
2022-08-19T16:30:38.029Z,22.13
2022-08-19T16:33:06.351Z,22.02
2022-08-19T16:35:33.510Z,22.21
2022-08-19T16:38:01.488Z,22.22
2022-08-19T16:40:29.290Z,21.44
2022-08-19T16:42:56.530Z,22.05
2022-08-19T16:45:23.669Z,22.37
2022-08-19T16:47:50.837Z,22.37
2022-08-19T16:50:25.349Z,22.32
2022-08-19T16:53:08.167Z,22.40
2022-08-19T16:55:35.554Z,22.43
2022-08-19T16:58:05.012Z,22.33
2022-08-19T17:00:32.657Z,22.41
2022-08-19T17:03:14.746Z,22.32
2022-08-19T17:05:52.659Z,22.23
2022-08-19T17:08:26.469Z,22.06
2022-08-19T17:11:16.993Z,22.21
2022-08-19T17:13:47.714Z,21.92
2022-08-19T17:16:22.164Z,22.13
2022-08-19T17:18:52.365Z,22.18
2022-08-19T17:21:22.889Z,22.11
2022-08-19T17:23:50.730Z,21.57
2022-08-19T17:26:18.859Z,21.81
2022-08-19T17:28:50.147Z,21.98
2022-08-19T17:31:21.447Z,21.87
2022-08-19T17:33:49.731Z,21.83
2022-08-19T17:36:23.512Z,21.98
2022-08-19T17:38:52.894Z,21.98
2022-08-19T17:41:20.371Z,21.99
2022-08-19T17:43:47.669Z,21.97
2022-08-19T17:46:17.906Z,21.57
2022-08-19T17:48:52.187Z,21.97
2022-08-19T17:51:41.967Z,21.92
2022-08-19T17:54:19.243Z,21.84
2022-08-19T17:56:47.447Z,21.72
2022-08-19T17:59:15.591Z,21.86
2022-08-19T18:01:53.259Z,21.87
2022-08-19T18:04:24.966Z,21.86
2022-08-19T18:06:55.168Z,21.87
2022-08-19T18:09:25.203Z,21.89
2022-08-19T18:11:54.782Z,21.83
2022-08-19T18:14:32.039Z,21.83
2022-08-19T18:17:09.436Z,21.60
2022-08-19T18:19:42.092Z,21.86
2022-08-19T18:22:28.185Z,21.86
2022-08-19T18:24:57.454Z,21.89
2022-08-19T18:27:27.655Z,21.82
2022-08-19T18:29:59.630Z,21.78
2022-08-19T18:32:38.218Z,21.76
2022-08-19T18:35:16.929Z,21.85
2022-08-19T18:37:45.912Z,21.89
2022-08-19T18:40:39.821Z,21.94
2022-08-19T18:43:19.592Z,21.88
2022-08-19T18:46:07.161Z,21.60
2022-08-19T18:48:55.589Z,21.85
2022-08-19T18:51:28.164Z,21.85
2022-08-19T18:53:58.744Z,21.70
2022-08-19T18:56:29.250Z,21.73
2022-08-19T18:58:56.794Z,21.79
2022-08-19T19:01:36.989Z,21.74
2022-08-19T19:04:13.260Z,21.71
2022-08-19T19:06:42.939Z,21.70
2022-08-19T19:09:23.742Z,21.67
2022-08-19T19:11:55.690Z,21.68
2022-08-19T19:14:47.608Z,21.61
2022-08-19T19:17:15.879Z,21.40
2022-08-19T19:19:44.331Z,21.57
2022-08-19T19:22:21.217Z,21.52
2022-08-19T19:24:48.982Z,21.39
2022-08-19T19:27:20.580Z,21.49
2022-08-19T19:29:52.716Z,21.50
2022-08-19T19:32:23.947Z,21.55
2022-08-19T19:34:51.166Z,21.48
2022-08-19T19:37:19.172Z,21.32
2022-08-19T19:39:48.043Z,21.42
2022-08-19T19:42:22.635Z,21.32
2022-08-19T19:44:54.754Z,21.41
2022-08-19T19:47:24.359Z,21.44
2022-08-19T19:50:13.160Z,21.41
2022-08-19T19:52:41.312Z,21.38
2022-08-19T19:55:11.747Z,21.29
2022-08-19T19:57:39.642Z,21.30
2022-08-19T20:00:09.071Z,21.37
2022-08-19T20:02:36.514Z,21.38
2022-08-19T20:05:04.375Z,21.39
2022-08-19T20:07:50.373Z,21.33
2022-08-19T20:10:17.512Z,21.27
2022-08-19T20:12:44.610Z,21.27
2022-08-19T20:15:11.784Z,21.20
2022-08-19T20:17:42.639Z,21.21
2022-08-19T20:20:14.010Z,21.20
2022-08-19T20:22:47.445Z,21.20
2022-08-19T20:25:22.232Z,21.24
2022-08-19T20:27:50.657Z,21.20
2022-08-19T20:30:20.965Z,21.28
2022-08-19T20:32:50.332Z,21.27
2022-08-19T20:35:20.713Z,21.15
2022-08-19T20:37:48.888Z,21.28
2022-08-19T20:40:21.645Z,21.09
2022-08-19T20:42:50.647Z,20.92
2022-08-19T20:45:33.675Z,21.31
2022-08-19T20:48:03.594Z,21.28
2022-08-19T20:50:33.431Z,21.18
2022-08-19T20:53:01.192Z,21.12
2022-08-19T20:55:30.442Z,21.09
2022-08-19T20:57:58.706Z,21.09
2022-08-19T21:00:26.449Z,21.03
2022-08-19T21:02:54.013Z,21.11
2022-08-19T21:05:21.298Z,20.94
2022-08-19T21:07:48.780Z,21.05
2022-08-19T21:10:16.772Z,21.05
2022-08-19T21:12:44.510Z,21.08
2022-08-19T21:15:12.129Z,20.88
2022-08-19T21:17:39.985Z,20.81
2022-08-19T21:20:09.875Z,20.88
2022-08-19T21:22:37.184Z,21.05
2022-08-19T21:25:06.150Z,21.07
2022-08-19T21:27:33.465Z,21.01
2022-08-19T21:30:00.742Z,20.93
2022-08-19T21:32:28.254Z,21.03
2022-08-19T21:34:55.738Z,21.11
2022-08-19T21:37:25.090Z,21.11
2022-08-19T21:39:55.015Z,20.78
2022-08-19T21:42:24.064Z,21.06
2022-08-19T21:44:51.859Z,21.13
2022-08-19T21:47:19.552Z,21.14
2022-08-19T21:49:46.555Z,20.90
2022-08-19T21:52:13.936Z,21.10
2022-08-19T21:54:41.024Z,21.06
2022-08-19T21:57:10.639Z,21.03
2022-08-19T21:59:43.924Z,20.19
2022-08-19T22:02:21.281Z,21.08
2022-08-19T22:04:50.869Z,21.06
2022-08-19T22:07:19.722Z,21.00
2022-08-19T22:09:48.824Z,21.01
2022-08-19T22:12:23.404Z,21.01
2022-08-19T22:14:52.293Z,20.98
2022-08-19T22:17:20.904Z,20.96
2022-08-19T22:19:49.408Z,20.94
2022-08-19T22:22:31.573Z,20.93
2022-08-19T22:25:29.318Z,20.96
2022-08-19T22:28:01.904Z,20.77
2022-08-19T22:30:33.152Z,21.00
2022-08-19T22:33:04.557Z,21.00
2022-08-19T22:35:35.763Z,21.03
2022-08-19T22:38:06.603Z,21.00
2022-08-19T22:40:36.680Z,20.99
2022-08-19T22:43:11.934Z,20.97
2022-08-19T22:45:39.765Z,21.02
2022-08-19T22:48:09.162Z,20.99
2022-08-19T22:50:38.728Z,20.99
2022-08-19T22:53:08.169Z,20.98
2022-08-19T22:55:38.004Z,20.98
2022-08-19T22:58:05.796Z,21.00
2022-08-19T23:00:34.382Z,20.96
2022-08-19T23:03:02.249Z,20.99
2022-08-19T23:05:30.610Z,21.00
2022-08-19T23:07:59.112Z,21.05
2022-08-19T23:10:29.015Z,21.03
2022-08-19T23:12:59.186Z,21.02
2022-08-19T23:15:31.414Z,20.82
2022-08-19T23:18:01.713Z,21.04
2022-08-19T23:20:36.971Z,21.07
2022-08-19T23:23:07.518Z,21.05
2022-08-19T23:25:36.470Z,20.98
2022-08-19T23:28:24.393Z,20.99
2022-08-19T23:30:53.392Z,21.00
2022-08-19T23:33:36.219Z,20.97
2022-08-19T23:36:19.570Z,20.93
2022-08-19T23:38:49.595Z,20.93
2022-08-19T23:41:20.407Z,20.92
2022-08-19T23:43:48.031Z,20.91
2022-08-19T23:46:27.528Z,20.91
2022-08-19T23:48:56.879Z,20.88
2022-08-19T23:51:26.446Z,20.84
2022-08-19T23:53:54.458Z,20.86
2022-08-19T23:56:21.967Z,20.80
2022-08-19T23:58:49.447Z,20.78
